Kailua Kona, HI (96745)

9:30 PM HST on December 05, 2016 (GMT -1000)
Pualani Estates | | Change Station

Elev 420 ft 19.62 °N, 155.97 °W | Updated 6 seconds ago

Mostly Cloudy
Mostly Cloudy
75.2 °F
Feels Like 75 °F
N
0.0
Wind Variable Wind from SE
Gusts 0.0 mph

Today
High -- | Low -- °F
--% Chance of Precip.
Yesterday
High -- | Low -- °F
Precip. -- in
Pressure 29.92 in
Visibility 10.0 miles
Clouds Mostly Cloudy 11000 ft
Heat Index 75 °F
Dew Point 71 °F
Humidity 88%
Rainfall 0.45 in
Snow Depth Not available.
6:45 AM 5:44 PM
Waxing Crescent, 39% visible
METAR PHKO 060653Z 15008KT 10SM BKN110 24/21 A2992 RMK AO2 SLP132 T02440211
Pressure 29.92 in
Visibility 10.0 miles
Clouds Mostly Cloudy 11000 ft
Heat Index 75 °F
Dew Point 71 °F
Humidity 88%
Rainfall 0.45 in
Snow Depth Not available.
6:45 AM 5:44 PM
Waxing Crescent, 39% visible
METAR PHKO 060653Z 15008KT 10SM BKN110 24/21 A2992 RMK AO2 SLP132 T02440211

10-Day Weather Forecast

Almanac

Astronomy

Dec. 05, 2016 Rise Set
Actual Time
Civil Twilight
Nautical Twilight
Astronomical Twilight
Moon
Length of Visible Light
Length of Day
Tomorrow will be .
, % of the Moon is Illuminated

Today's Extremes

State Highs State Lows

Community

WunderPhotos

Upload Photos

1,955,930 photos uploaded!

WunderBlog® & News

Nearby

Air Quality

  Air Quality AQ Index Pollutant
Not available.

Snow Depth

Station Depth Elevation

Earthquake Activity

City Distance Mag. Time & Date
Minimum magnitude displayed is 2.5.

Coastal Water Temperatures

Place Temperature

Stations

Nearby Weather Stations

Station Location Temp. Windchill Dew Point Humidity Wind Precip. Elev Updated Type
                   

Watches & Warnings

There are currently no watches in effect.